sensor_id;sensor_type;location;lat;lon;timestamp;pressure;altitude;pressure_sealevel;temperature;humidity
15382;BME280;7789;51.364;12.358;2023-06-22T00:01:30;100594.50;;;23.36;100.00
15382;BME280;7789;51.364;12.358;2023-06-22T00:06:34;100590.78;;;23.31;100.00
15382;BME280;7789;51.364;12.358;2023-06-22T00:11:39;100583.41;;;23.26;100.00
15382;BME280;7789;51.364;12.358;2023-06-22T00:16:42;100578.84;;;23.20;100.00
15382;BME280;7789;51.364;12.358;2023-06-22T00:21:46;100570.44;;;23.17;100.00
15382;BME280;7789;51.364;12.358;2023-06-22T00:26:56;100573.72;;;23.12;100.00
15382;BME280;7789;51.364;12.358;2023-06-22T00:31:59;100574.53;;;23.13;100.00
15382;BME280;7789;51.364;12.358;2023-06-22T00:37:03;100579.63;;;23.08;100.00
15382;BME280;7789;51.364;12.358;2023-06-22T00:42:08;100560.91;;;23.01;100.00
15382;BME280;7789;51.364;12.358;2023-06-22T00:47:11;100565.19;;;22.96;100.00
15382;BME280;7789;51.364;12.358;2023-06-22T00:52:17;100561.09;;;22.93;100.00
15382;BME280;7789;51.364;12.358;2023-06-22T00:57:24;100555.34;;;22.90;100.00
15382;BME280;7789;51.364;12.358;2023-06-22T01:02:30;100562.91;;;22.86;100.00
15382;BME280;7789;51.364;12.358;2023-06-22T01:07:35;100560.03;;;22.81;100.00
15382;BME280;7789;51.364;12.358;2023-06-22T01:12:46;100559.81;;;22.76;100.00
15382;BME280;7789;51.364;12.358;2023-06-22T01:17:52;100559.16;;;22.68;100.00
15382;BME280;7789;51.364;12.358;2023-06-22T01:23:05;100560.59;;;22.64;100.00
15382;BME280;7789;51.364;12.358;2023-06-22T01:28:24;100561.16;;;22.60;100.00
15382;BME280;7789;51.364;12.358;2023-06-22T01:33:33;100561.94;;;22.54;100.00
15382;BME280;7789;51.364;12.358;2023-06-22T01:38:37;100565.00;;;22.51;100.00
15382;BME280;7789;51.364;12.358;2023-06-22T01:43:41;100566.03;;;22.50;100.00
15382;BME280;7789;51.364;12.358;2023-06-22T01:48:47;100562.91;;;22.46;100.00
15382;BME280;7789;51.364;12.358;2023-06-22T01:53:51;100567.41;;;22.39;100.00
15382;BME280;7789;51.364;12.358;2023-06-22T01:59:00;100561.81;;;22.34;100.00
15382;BME280;7789;51.364;12.358;2023-06-22T02:04:12;100547.25;;;22.30;100.00
15382;BME280;7789;51.364;12.358;2023-06-22T02:09:18;100561.78;;;22.28;100.00
15382;BME280;7789;51.364;12.358;2023-06-22T02:14:25;100556.84;;;22.25;100.00
15382;BME280;7789;51.364;12.358;2023-06-22T02:19:30;100565.22;;;22.22;100.00
15382;BME280;7789;51.364;12.358;2023-06-22T02:24:35;100549.59;;;22.19;100.00
15382;BME280;7789;51.364;12.358;2023-06-22T02:29:38;100540.59;;;22.20;100.00
15382;BME280;7789;51.364;12.358;2023-06-22T02:34:43;100550.44;;;22.19;100.00
15382;BME280;7789;51.364;12.358;2023-06-22T02:39:49;100548.97;;;22.17;100.00
15382;BME280;7789;51.364;12.358;2023-06-22T02:44:53;100545.06;;;22.13;100.00
15382;BME280;7789;51.364;12.358;2023-06-22T02:49:58;100543.81;;;22.09;100.00
15382;BME280;7789;51.364;12.358;2023-06-22T02:55:02;100533.34;;;22.07;100.00
15382;BME280;7789;51.364;12.358;2023-06-22T03:00:07;100545.03;;;22.06;100.00
15382;BME280;7789;51.364;12.358;2023-06-22T03:05:20;100544.22;;;22.06;100.00
15382;BME280;7789;51.364;12.358;2023-06-22T03:10:24;100537.03;;;22.06;100.00
15382;BME280;7789;51.364;12.358;2023-06-22T03:15:28;100542.97;;;22.08;100.00
15382;BME280;7789;51.364;12.358;2023-06-22T03:20:34;100547.50;;;22.08;100.00
15382;BME280;7789;51.364;12.358;2023-06-22T03:25:38;100536.00;;;22.07;100.00
15382;BME280;7789;51.364;12.358;2023-06-22T03:30:42;100542.34;;;22.06;100.00
15382;BME280;7789;51.364;12.358;2023-06-22T03:35:46;100556.69;;;22.05;100.00
15382;BME280;7789;51.364;12.358;2023-06-22T03:40:50;100559.53;;;22.04;100.00
15382;BME280;7789;51.364;12.358;2023-06-22T03:45:54;100572.06;;;22.03;100.00
15382;BME280;7789;51.364;12.358;2023-06-22T03:51:00;100591.13;;;22.07;100.00
15382;BME280;7789;51.364;12.358;2023-06-22T03:56:05;100581.50;;;22.06;100.00
15382;BME280;7789;51.364;12.358;2023-06-22T04:01:08;100604.25;;;22.08;100.00
15382;BME280;7789;51.364;12.358;2023-06-22T04:06:15;100620.09;;;22.16;100.00
15382;BME280;7789;51.364;12.358;2023-06-22T04:11:18;100639.50;;;22.31;100.00
15382;BME280;7789;51.364;12.358;2023-06-22T04:16:22;100644.38;;;22.55;100.00
15382;BME280;7789;51.364;12.358;2023-06-22T04:21:27;100654.69;;;22.65;100.00
15382;BME280;7789;51.364;12.358;2023-06-22T04:26:30;100655.38;;;22.73;100.00
15382;BME280;7789;51.364;12.358;2023-06-22T04:31:42;100644.34;;;22.82;100.00
15382;BME280;7789;51.364;12.358;2023-06-22T04:36:48;100656.69;;;22.90;100.00
15382;BME280;7789;51.364;12.358;2023-06-22T04:41:51;100654.88;;;22.97;100.00
15382;BME280;7789;51.364;12.358;2023-06-22T04:46:56;100643.03;;;23.06;100.00
15382;BME280;7789;51.364;12.358;2023-06-22T04:52:05;100635.47;;;23.09;100.00
15382;BME280;7789;51.364;12.358;2023-06-22T04:57:09;100634.69;;;23.15;100.00
15382;BME280;7789;51.364;12.358;2023-06-22T05:02:16;100625.03;;;23.14;100.00
15382;BME280;7789;51.364;12.358;2023-06-22T05:07:23;100620.16;;;23.24;100.00
15382;BME280;7789;51.364;12.358;2023-06-22T05:12:28;100613.44;;;23.61;100.00
15382;BME280;7789;51.364;12.358;2023-06-22T05:17:32;100592.31;;;25.00;100.00
15382;BME280;7789;51.364;12.358;2023-06-22T05:22:40;100569.94;;;25.94;100.00
15382;BME280;7789;51.364;12.358;2023-06-22T05:27:48;100559.69;;;28.10;88.88
15382;BME280;7789;51.364;12.358;2023-06-22T05:32:54;100551.91;;;27.56;87.89
15382;BME280;7789;51.364;12.358;2023-06-22T05:37:59;100518.56;;;27.34;88.10
15382;BME280;7789;51.364;12.358;2023-06-22T05:43:03;100507.06;;;26.98;88.95
15382;BME280;7789;51.364;12.358;2023-06-22T05:48:06;100514.03;;;29.00;77.04
15382;BME280;7789;51.364;12.358;2023-06-22T05:53:11;100514.97;;;30.81;68.01
15382;BME280;7789;51.364;12.358;2023-06-22T05:58:15;100509.50;;;31.86;62.00
15382;BME280;7789;51.364;12.358;2023-06-22T06:03:34;100504.38;;;31.22;60.90
15382;BME280;7789;51.364;12.358;2023-06-22T06:08:47;100522.41;;;31.43;58.83
15382;BME280;7789;51.364;12.358;2023-06-22T06:13:51;100519.97;;;33.82;52.89
15382;BME280;7789;51.364;12.358;2023-06-22T06:18:58;100520.03;;;32.19;54.31
15382;BME280;7789;51.364;12.358;2023-06-22T06:24:06;100526.28;;;32.76;52.41
15382;BME280;7789;51.364;12.358;2023-06-22T06:29:09;100533.22;;;32.57;52.30
15382;BME280;7789;51.364;12.358;2023-06-22T06:34:13;100551.00;;;31.97;52.60
15382;BME280;7789;51.364;12.358;2023-06-22T06:39:18;100552.81;;;31.55;52.85
15382;BME280;7789;51.364;12.358;2023-06-22T06:44:22;100552.91;;;31.12;54.20
15382;BME280;7789;51.364;12.358;2023-06-22T06:49:25;100563.78;;;31.17;54.22
15382;BME280;7789;51.364;12.358;2023-06-22T06:54:31;100558.75;;;31.04;54.04
15382;BME280;7789;51.364;12.358;2023-06-22T06:59:35;100558.22;;;31.07;55.25
15382;BME280;7789;51.364;12.358;2023-06-22T07:04:39;100557.69;;;30.83;55.00
15382;BME280;7789;51.364;12.358;2023-06-22T07:09:43;100563.03;;;30.79;55.44
15382;BME280;7789;51.364;12.358;2023-06-22T07:14:47;100560.66;;;30.44;56.07
15382;BME280;7789;51.364;12.358;2023-06-22T07:19:50;100549.69;;;30.13;56.31
15382;BME280;7789;51.364;12.358;2023-06-22T07:24:55;100550.28;;;30.95;54.37
15382;BME280;7789;51.364;12.358;2023-06-22T07:29:58;100556.16;;;31.98;52.97
15382;BME280;7789;51.364;12.358;2023-06-22T07:35:02;100544.91;;;32.16;51.44
15382;BME280;7789;51.364;12.358;2023-06-22T07:40:09;100533.91;;;32.89;48.75
15382;BME280;7789;51.364;12.358;2023-06-22T07:45:13;100545.19;;;34.02;45.99
15382;BME280;7789;51.364;12.358;2023-06-22T07:50:17;100541.78;;;35.23;43.70
15382;BME280;7789;51.364;12.358;2023-06-22T07:55:22;100536.63;;;34.69;43.33
15382;BME280;7789;51.364;12.358;2023-06-22T08:00:25;100538.13;;;34.01;44.21
15382;BME280;7789;51.364;12.358;2023-06-22T08:05:29;100534.91;;;33.89;43.99
15382;BME280;7789;51.364;12.358;2023-06-22T08:10:34;100541.38;;;33.48;43.97
15382;BME280;7789;51.364;12.358;2023-06-22T08:15:38;100516.47;;;33.71;45.29
15382;BME280;7789;51.364;12.358;2023-06-22T08:20:41;100521.28;;;34.93;42.49
15382;BME280;7789;51.364;12.358;2023-06-22T08:25:47;100515.56;;;34.31;42.81
15382;BME280;7789;51.364;12.358;2023-06-22T08:30:52;100522.69;;;33.72;45.07
15382;BME280;7789;51.364;12.358;2023-06-22T08:35:58;100511.28;;;33.50;44.24
15382;BME280;7789;51.364;12.358;2023-06-22T08:41:06;100512.91;;;33.46;44.69
15382;BME280;7789;51.364;12.358;2023-06-22T08:46:13;100504.19;;;33.44;44.64
15382;BME280;7789;51.364;12.358;2023-06-22T08:51:17;100503.88;;;33.10;45.50
15382;BME280;7789;51.364;12.358;2023-06-22T08:56:21;100504.94;;;32.99;44.68
15382;BME280;7789;51.364;12.358;2023-06-22T09:01:25;100503.03;;;32.90;45.51
15382;BME280;7789;51.364;12.358;2023-06-22T09:06:29;100509.38;;;32.54;44.87
15382;BME280;7789;51.364;12.358;2023-06-22T09:11:35;100506.53;;;32.24;45.96
15382;BME280;7789;51.364;12.358;2023-06-22T09:16:38;100487.72;;;32.08;46.41
15382;BME280;7789;51.364;12.358;2023-06-22T09:21:42;100502.22;;;31.87;46.75
15382;BME280;7789;51.364;12.358;2023-06-22T09:26:47;100475.16;;;31.87;46.14
15382;BME280;7789;51.364;12.358;2023-06-22T09:31:51;100464.03;;;31.78;45.49
15382;BME280;7789;51.364;12.358;2023-06-22T09:36:55;100465.13;;;31.82;46.82
15382;BME280;7789;51.364;12.358;2023-06-22T09:42:00;100456.69;;;31.79;46.42
15382;BME280;7789;51.364;12.358;2023-06-22T09:47:04;100445.84;;;31.74;46.92
15382;BME280;7789;51.364;12.358;2023-06-22T09:52:08;100452.59;;;31.71;47.77
15382;BME280;7789;51.364;12.358;2023-06-22T09:57:14;100444.41;;;31.61;47.93
15382;BME280;7789;51.364;12.358;2023-06-22T10:02:18;100453.72;;;31.75;47.42
15382;BME280;7789;51.364;12.358;2023-06-22T10:07:22;100434.38;;;31.62;47.85
15382;BME280;7789;51.364;12.358;2023-06-22T10:12:28;100447.72;;;31.73;46.60
15382;BME280;7789;51.364;12.358;2023-06-22T10:17:31;100421.94;;;31.61;46.53
15382;BME280;7789;51.364;12.358;2023-06-22T10:22:35;100415.56;;;31.77;46.39
15382;BME280;7789;51.364;12.358;2023-06-22T10:27:40;100418.03;;;31.78;46.84
15382;BME280;7789;51.364;12.358;2023-06-22T10:32:44;100411.75;;;31.73;45.94
15382;BME280;7789;51.364;12.358;2023-06-22T10:37:48;100408.94;;;31.58;46.14
15382;BME280;7789;51.364;12.358;2023-06-22T10:42:53;100405.34;;;31.47;46.25
15382;BME280;7789;51.364;12.358;2023-06-22T10:47:56;100385.97;;;31.60;46.50
15382;BME280;7789;51.364;12.358;2023-06-22T10:53:00;100386.31;;;31.69;46.26
15382;BME280;7789;51.364;12.358;2023-06-22T10:58:05;100382.09;;;31.93;45.43
15382;BME280;7789;51.364;12.358;2023-06-22T11:03:10;100372.25;;;31.72;45.09
15382;BME280;7789;51.364;12.358;2023-06-22T11:08:15;100373.19;;;31.97;44.96
15382;BME280;7789;51.364;12.358;2023-06-22T11:13:20;100372.72;;;32.10;44.16
15382;BME280;7789;51.364;12.358;2023-06-22T11:18:24;100363.75;;;32.10;43.77
15382;BME280;7789;51.364;12.358;2023-06-22T11:23:27;100349.22;;;32.26;44.16
15382;BME280;7789;51.364;12.358;2023-06-22T11:28:32;100364.16;;;32.33;43.13
15382;BME280;7789;51.364;12.358;2023-06-22T11:33:36;100345.69;;;32.20;43.23
15382;BME280;7789;51.364;12.358;2023-06-22T11:38:39;100342.66;;;32.12;43.09
15382;BME280;7789;51.364;12.358;2023-06-22T11:43:45;100340.72;;;31.97;44.35
15382;BME280;7789;51.364;12.358;2023-06-22T11:48:48;100336.69;;;32.05;44.37
15382;BME280;7789;51.364;12.358;2023-06-22T11:53:51;100337.31;;;32.27;43.79
15382;BME280;7789;51.364;12.358;2023-06-22T11:58:56;100333.53;;;32.18;44.81
15382;BME280;7789;51.364;12.358;2023-06-22T12:04:00;100327.56;;;32.21;44.69
15382;BME280;7789;51.364;12.358;2023-06-22T12:09:03;100299.66;;;32.25;45.13
15382;BME280;7789;51.364;12.358;2023-06-22T12:14:08;100303.97;;;32.16;44.39
15382;BME280;7789;51.364;12.358;2023-06-22T12:19:12;100295.00;;;32.16;44.68
15382;BME280;7789;51.364;12.358;2023-06-22T12:24:15;100282.03;;;32.13;44.19
15382;BME280;7789;51.364;12.358;2023-06-22T12:29:20;100274.25;;;32.36;44.00
15382;BME280;7789;51.364;12.358;2023-06-22T12:34:25;100268.28;;;32.34;43.74
15382;BME280;7789;51.364;12.358;2023-06-22T12:39:29;100255.03;;;32.43;43.98
15382;BME280;7789;51.364;12.358;2023-06-22T12:44:33;100247.16;;;32.36;43.77
15382;BME280;7789;51.364;12.358;2023-06-22T12:49:37;100250.94;;;32.25;44.41
15382;BME280;7789;51.364;12.358;2023-06-22T12:54:40;100250.13;;;32.30;43.38
15382;BME280;7789;51.364;12.358;2023-06-22T12:59:58;100231.19;;;32.40;43.61
15382;BME280;7789;51.364;12.358;2023-06-22T13:05:03;100226.59;;;32.50;43.79
15382;BME280;7789;51.364;12.358;2023-06-22T13:10:08;100218.44;;;32.40;44.07
15382;BME280;7789;51.364;12.358;2023-06-22T13:15:13;100194.63;;;32.37;43.79
15382;BME280;7789;51.364;12.358;2023-06-22T13:20:17;100194.91;;;32.46;43.99
15382;BME280;7789;51.364;12.358;2023-06-22T13:25:21;100199.75;;;32.49;44.30
15382;BME280;7789;51.364;12.358;2023-06-22T13:30:30;100184.31;;;32.54;43.87
15382;BME280;7789;51.364;12.358;2023-06-22T13:35:34;100180.53;;;32.50;43.84
15382;BME280;7789;51.364;12.358;2023-06-22T13:40:38;100179.44;;;32.51;44.36
15382;BME280;7789;51.364;12.358;2023-06-22T13:45:43;100148.31;;;32.44;43.25
15382;BME280;7789;51.364;12.358;2023-06-22T13:50:47;100164.81;;;32.57;43.53
15382;BME280;7789;51.364;12.358;2023-06-22T13:55:51;100172.69;;;32.59;43.96
15382;BME280;7789;51.364;12.358;2023-06-22T14:00:56;100159.13;;;32.64;43.87
15382;BME280;7789;51.364;12.358;2023-06-22T14:06:00;100149.91;;;32.60;43.46
15382;BME280;7789;51.364;12.358;2023-06-22T14:11:03;100140.44;;;32.72;43.83
15382;BME280;7789;51.364;12.358;2023-06-22T14:16:08;100128.25;;;32.75;43.68
15382;BME280;7789;51.364;12.358;2023-06-22T14:21:12;100119.56;;;32.78;43.62
15382;BME280;7789;51.364;12.358;2023-06-22T14:26:15;100118.22;;;32.70;43.50
15382;BME280;7789;51.364;12.358;2023-06-22T14:31:21;100106.84;;;32.78;43.69
15382;BME280;7789;51.364;12.358;2023-06-22T14:36:25;100087.06;;;32.73;43.72
15382;BME280;7789;51.364;12.358;2023-06-22T14:41:29;100071.03;;;32.76;44.60
15382;BME280;7789;51.364;12.358;2023-06-22T14:46:35;100068.63;;;32.65;44.74
15382;BME280;7789;51.364;12.358;2023-06-22T14:51:38;100074.31;;;32.73;43.74
15382;BME280;7789;51.364;12.358;2023-06-22T14:56:42;100051.84;;;32.73;45.01
15382;BME280;7789;51.364;12.358;2023-06-22T15:01:50;100057.22;;;32.78;44.27
15382;BME280;7789;51.364;12.358;2023-06-22T15:06:53;100041.00;;;32.73;44.47
15382;BME280;7789;51.364;12.358;2023-06-22T15:11:57;100029.63;;;32.71;44.48
15382;BME280;7789;51.364;12.358;2023-06-22T15:17:06;100015.78;;;32.72;44.55
15382;BME280;7789;51.364;12.358;2023-06-22T15:22:14;100010.69;;;32.71;44.64
15382;BME280;7789;51.364;12.358;2023-06-22T15:27:20;100005.22;;;32.66;44.57
15382;BME280;7789;51.364;12.358;2023-06-22T15:32:25;100002.00;;;32.74;44.26
15382;BME280;7789;51.364;12.358;2023-06-22T15:37:28;99991.19;;;32.69;44.24
15382;BME280;7789;51.364;12.358;2023-06-22T15:42:32;99989.25;;;32.59;44.34
15382;BME280;7789;51.364;12.358;2023-06-22T15:47:37;99979.56;;;32.53;44.56
15382;BME280;7789;51.364;12.358;2023-06-22T15:52:40;99970.41;;;32.39;44.90
15382;BME280;7789;51.364;12.358;2023-06-22T15:57:43;99959.06;;;32.32;45.27
15382;BME280;7789;51.364;12.358;2023-06-22T16:02:50;99948.25;;;32.27;45.10
15382;BME280;7789;51.364;12.358;2023-06-22T16:07:55;99960.72;;;32.23;45.82
15382;BME280;7789;51.364;12.358;2023-06-22T16:12:59;99944.72;;;32.17;45.37
15382;BME280;7789;51.364;12.358;2023-06-22T16:18:04;99945.31;;;32.09;46.00
15382;BME280;7789;51.364;12.358;2023-06-22T16:23:09;99936.91;;;32.05;45.92
15382;BME280;7789;51.364;12.358;2023-06-22T16:28:13;99935.84;;;32.01;46.27
15382;BME280;7789;51.364;12.358;2023-06-22T16:33:18;99915.28;;;32.05;46.57
15382;BME280;7789;51.364;12.358;2023-06-22T16:38:21;99898.78;;;32.02;46.72
15382;BME280;7789;51.364;12.358;2023-06-22T16:43:25;99896.91;;;31.97;46.64
15382;BME280;7789;51.364;12.358;2023-06-22T16:48:30;99881.75;;;31.96;46.35
15382;BME280;7789;51.364;12.358;2023-06-22T16:53:34;99871.50;;;31.93;46.51
15382;BME280;7789;51.364;12.358;2023-06-22T16:58:38;99853.66;;;31.82;46.72
15382;BME280;7789;51.364;12.358;2023-06-22T17:03:58;99860.19;;;31.76;47.37
15382;BME280;7789;51.364;12.358;2023-06-22T17:09:05;99847.75;;;31.70;47.97
15382;BME280;7789;51.364;12.358;2023-06-22T17:14:09;99838.00;;;31.64;47.55
15382;BME280;7789;51.364;12.358;2023-06-22T17:19:15;99833.69;;;31.63;48.13
15382;BME280;7789;51.364;12.358;2023-06-22T17:24:18;99815.56;;;31.59;48.92
15382;BME280;7789;51.364;12.358;2023-06-22T17:29:28;99802.06;;;31.54;49.05
15382;BME280;7789;51.364;12.358;2023-06-22T17:34:35;99800.19;;;31.49;48.71
15382;BME280;7789;51.364;12.358;2023-06-22T17:39:39;99787.78;;;31.43;49.48
15382;BME280;7789;51.364;12.358;2023-06-22T17:44:44;99785.63;;;31.35;49.62
15382;BME280;7789;51.364;12.358;2023-06-22T17:49:49;99770.22;;;31.31;49.92
15382;BME280;7789;51.364;12.358;2023-06-22T17:54:53;99752.94;;;31.22;49.96
15382;BME280;7789;51.364;12.358;2023-06-22T18:00:13;99753.78;;;31.17;50.43
15382;BME280;7789;51.364;12.358;2023-06-22T18:05:28;99742.16;;;31.12;50.69
15382;BME280;7789;51.364;12.358;2023-06-22T18:10:33;99749.97;;;31.03;51.38
15382;BME280;7789;51.364;12.358;2023-06-22T18:15:38;99752.72;;;30.93;51.63
15382;BME280;7789;51.364;12.358;2023-06-22T18:20:45;99770.53;;;30.84;52.07
15382;BME280;7789;51.364;12.358;2023-06-22T18:25:49;99763.53;;;30.74;52.78
15382;BME280;7789;51.364;12.358;2023-06-22T18:30:53;99758.13;;;30.69;52.93
15382;BME280;7789;51.364;12.358;2023-06-22T18:35:59;99755.44;;;30.59;53.31
15382;BME280;7789;51.364;12.358;2023-06-22T18:41:05;99760.25;;;30.47;54.15
15382;BME280;7789;51.364;12.358;2023-06-22T18:46:31;99755.41;;;30.44;54.02
15382;BME280;7789;51.364;12.358;2023-06-22T18:51:53;99764.03;;;30.41;54.17
15382;BME280;7789;51.364;12.358;2023-06-22T18:56:58;99743.50;;;30.30;55.00
15382;BME280;7789;51.364;12.358;2023-06-22T19:02:03;99765.09;;;30.25;55.08
15382;BME280;7789;51.364;12.358;2023-06-22T19:07:08;99753.19;;;30.16;55.16
15382;BME280;7789;51.364;12.358;2023-06-22T19:12:18;99739.69;;;30.06;56.35
15382;BME280;7789;51.364;12.358;2023-06-22T19:17:22;99728.84;;;29.96;56.44
15382;BME280;7789;51.364;12.358;2023-06-22T19:22:43;99717.75;;;29.87;57.12
15382;BME280;7789;51.364;12.358;2023-06-22T19:27:49;99723.94;;;29.78;57.09
15382;BME280;7789;51.364;12.358;2023-06-22T19:32:56;99727.72;;;29.72;58.14
15382;BME280;7789;51.364;12.358;2023-06-22T19:38:01;99739.50;;;29.61;58.93
15382;BME280;7789;51.364;12.358;2023-06-22T19:43:06;99741.13;;;29.57;58.72
15382;BME280;7789;51.364;12.358;2023-06-22T19:48:09;99773.19;;;29.53;59.76
15382;BME280;7789;51.364;12.358;2023-06-22T19:53:15;99771.81;;;29.51;60.27
15382;BME280;7789;51.364;12.358;2023-06-22T19:58:20;99746.41;;;29.42;60.38
15382;BME280;7789;51.364;12.358;2023-06-22T20:03:27;99754.19;;;29.38;60.65
15382;BME280;7789;51.364;12.358;2023-06-22T20:08:41;99751.19;;;29.30;61.59
15382;BME280;7789;51.364;12.358;2023-06-22T20:13:46;99774.31;;;29.21;62.47
15382;BME280;7789;51.364;12.358;2023-06-22T20:19:04;99740.59;;;29.13;63.54
15382;BME280;7789;51.364;12.358;2023-06-22T20:24:12;99738.59;;;28.94;65.69
15382;BME280;7789;51.364;12.358;2023-06-22T20:29:22;99820.38;;;28.88;67.43
15382;BME280;7789;51.364;12.358;2023-06-22T20:34:26;99989.38;;;28.81;65.09
15382;BME280;7789;51.364;12.358;2023-06-22T20:39:31;100028.44;;;27.86;62.72
15382;BME280;7789;51.364;12.358;2023-06-22T20:44:35;100018.00;;;26.73;66.28
15382;BME280;7789;51.364;12.358;2023-06-22T20:49:38;100008.84;;;25.89;71.59
15382;BME280;7789;51.364;12.358;2023-06-22T20:54:43;99971.34;;;25.25;78.00
15382;BME280;7789;51.364;12.358;2023-06-22T20:59:47;99990.59;;;24.57;86.15
15382;BME280;7789;51.364;12.358;2023-06-22T21:04:51;99983.81;;;24.18;93.31
15382;BME280;7789;51.364;12.358;2023-06-22T21:09:58;99978.00;;;23.85;100.00
15382;BME280;7789;51.364;12.358;2023-06-22T21:15:02;99974.56;;;23.54;100.00
15382;BME280;7789;51.364;12.358;2023-06-22T21:20:08;99979.97;;;23.16;100.00
15382;BME280;7789;51.364;12.358;2023-06-22T21:25:14;99951.81;;;22.89;100.00
15382;BME280;7789;51.364;12.358;2023-06-22T21:30:18;99924.84;;;22.67;100.00
15382;BME280;7789;51.364;12.358;2023-06-22T21:35:22;99950.78;;;22.47;100.00
15382;BME280;7789;51.364;12.358;2023-06-22T21:40:26;99941.19;;;22.33;100.00
15382;BME280;7789;51.364;12.358;2023-06-22T21:45:30;99974.22;;;22.19;100.00
15382;BME280;7789;51.364;12.358;2023-06-22T21:50:34;100004.78;;;22.10;100.00
15382;BME280;7789;51.364;12.358;2023-06-22T21:55:39;100000.06;;;22.05;100.00
15382;BME280;7789;51.364;12.358;2023-06-22T22:00:43;99991.28;;;21.98;100.00
15382;BME280;7789;51.364;12.358;2023-06-22T22:05:46;99985.56;;;21.88;100.00
15382;BME280;7789;51.364;12.358;2023-06-22T22:10:51;100010.53;;;21.94;100.00
15382;BME280;7789;51.364;12.358;2023-06-22T22:15:54;99990.03;;;21.94;100.00
15382;BME280;7789;51.364;12.358;2023-06-22T22:20:58;100002.75;;;21.92;100.00
15382;BME280;7789;51.364;12.358;2023-06-22T22:26:03;99964.06;;;21.90;100.00
15382;BME280;7789;51.364;12.358;2023-06-22T22:31:06;99915.13;;;21.78;100.00
15382;BME280;7789;51.364;12.358;2023-06-22T22:36:10;99870.50;;;21.73;100.00
15382;BME280;7789;51.364;12.358;2023-06-22T22:41:15;99833.47;;;21.59;100.00
15382;BME280;7789;51.364;12.358;2023-06-22T22:46:19;99822.22;;;21.50;100.00
15382;BME280;7789;51.364;12.358;2023-06-22T22:51:22;99883.44;;;21.44;100.00
15382;BME280;7789;51.364;12.358;2023-06-22T22:56:27;99931.09;;;21.52;100.00
15382;BME280;7789;51.364;12.358;2023-06-22T23:01:31;99930.91;;;21.53;100.00
15382;BME280;7789;51.364;12.358;2023-06-22T23:06:35;99940.31;;;21.43;100.00
15382;BME280;7789;51.364;12.358;2023-06-22T23:11:41;99921.28;;;21.39;100.00
15382;BME280;7789;51.364;12.358;2023-06-22T23:16:44;99941.75;;;21.26;100.00
15382;BME280;7789;51.364;12.358;2023-06-22T23:21:48;99964.66;;;21.27;100.00
15382;BME280;7789;51.364;12.358;2023-06-22T23:26:53;99993.72;;;21.22;100.00
15382;BME280;7789;51.364;12.358;2023-06-22T23:32:00;100014.59;;;21.25;100.00
15382;BME280;7789;51.364;12.358;2023-06-22T23:37:05;100044.88;;;21.30;100.00
15382;BME280;7789;51.364;12.358;2023-06-22T23:42:10;100075.78;;;21.31;100.00
15382;BME280;7789;51.364;12.358;2023-06-22T23:47:13;100089.69;;;21.33;100.00
15382;BME280;7789;51.364;12.358;2023-06-22T23:52:16;100080.69;;;21.28;100.00
15382;BME280;7789;51.364;12.358;2023-06-22T23:57:25;100020.13;;;21.30;100.00
